createdAt,value
2022-09-24T00:00:10.370Z,33.50
2022-09-24T00:03:14.041Z,33.10
2022-09-24T00:06:19.305Z,34.00
2022-09-24T00:09:24.668Z,33.47
2022-09-24T00:12:28.893Z,32.83
2022-09-24T00:15:32.669Z,32.37
2022-09-24T00:18:37.295Z,32.83
2022-09-24T00:21:42.456Z,34.30
2022-09-24T00:25:04.635Z,33.47
2022-09-24T00:28:09.127Z,33.30
2022-09-24T00:31:12.765Z,34.30
2022-09-24T00:34:16.551Z,33.37
2022-09-24T00:37:20.494Z,34.00
2022-09-24T00:40:31.049Z,35.23
2022-09-24T00:43:39.163Z,35.07
2022-09-24T00:46:45.454Z,37.07
2022-09-24T00:49:52.024Z,37.03
2022-09-24T00:53:02.266Z,37.87
2022-09-24T00:56:12.557Z,39.17
2022-09-24T00:59:19.519Z,38.83
2022-09-24T01:02:24.453Z,39.07
2022-09-24T01:05:28.196Z,40.23
2022-09-24T01:08:31.841Z,39.13
2022-09-24T01:11:54.786Z,39.37
2022-09-24T01:15:15.472Z,40.00
2022-09-24T01:18:36.289Z,41.03
2022-09-24T01:21:50.867Z,40.70
2022-09-24T01:25:03.461Z,41.57
2022-09-24T01:28:34.719Z,40.97
2022-09-24T01:31:47.328Z,42.17
2022-09-24T01:34:58.369Z,43.37
2022-09-24T01:38:06.933Z,43.20
2022-09-24T01:41:16.128Z,42.47
2022-09-24T01:44:20.148Z,44.30
2022-09-24T01:47:34.879Z,43.23
2022-09-24T01:50:49.930Z,41.80
2022-09-24T01:54:03.711Z,43.40
2022-09-24T01:57:14.555Z,44.03
2022-09-24T02:00:22.421Z,45.10
2022-09-24T02:03:35.707Z,45.07
2022-09-24T02:06:47.852Z,46.03
2022-09-24T02:09:51.735Z,44.30
2022-09-24T02:13:04.695Z,46.50
2022-09-24T02:16:16.280Z,44.90
2022-09-24T02:19:29.609Z,44.57
2022-09-24T02:22:34.716Z,46.33
2022-09-24T02:25:44.828Z,47.40
2022-09-24T02:28:48.615Z,46.13
2022-09-24T02:31:57.281Z,48.83
2022-09-24T02:35:07.764Z,47.83
2022-09-24T02:38:17.939Z,49.67
2022-09-24T02:41:24.114Z,48.83
2022-09-24T02:44:28.594Z,51.70
2022-09-24T02:47:32.425Z,50.20
2022-09-24T02:50:37.461Z,49.93
2022-09-24T02:53:41.055Z,48.93
2022-09-24T02:56:44.791Z,50.67
2022-09-24T02:59:48.753Z,51.20
2022-09-24T03:02:52.524Z,50.73
2022-09-24T03:05:57.653Z,49.50
2022-09-24T03:09:03.550Z,49.73
2022-09-24T03:12:07.218Z,50.17
2022-09-24T03:15:12.339Z,49.17
2022-09-24T03:18:16.307Z,48.33
2022-09-24T03:21:23.658Z,46.53
2022-09-24T03:24:27.332Z,46.20
2022-09-24T03:27:30.923Z,45.67
2022-09-24T03:30:52.027Z,46.53
2022-09-24T03:33:55.977Z,48.40
2022-09-24T03:37:00.981Z,47.20
2022-09-24T03:40:07.005Z,45.20
2022-09-24T03:43:10.890Z,45.37
2022-09-24T03:46:17.426Z,43.53
2022-09-24T03:49:21.181Z,42.30
2022-09-24T03:52:27.591Z,43.20
2022-09-24T03:55:31.290Z,41.90
2022-09-24T03:58:38.049Z,38.67
2022-09-24T04:01:41.750Z,37.57
2022-09-24T04:04:45.339Z,37.93
2022-09-24T04:07:50.254Z,36.97
2022-09-24T04:10:55.602Z,38.13
2022-09-24T04:13:59.644Z,35.90
2022-09-24T04:17:03.838Z,36.53
2022-09-24T04:20:09.173Z,34.10
2022-09-24T04:23:14.963Z,41.43
2022-09-24T04:26:18.868Z,34.67
2022-09-24T04:29:22.505Z,34.40
2022-09-24T04:32:26.076Z,34.90
2022-09-24T04:35:33.045Z,34.97
2022-09-24T04:38:38.147Z,35.07
2022-09-24T04:41:41.751Z,32.70
2022-09-24T04:44:47.857Z,35.00
2022-09-24T04:47:53.527Z,39.07
2022-09-24T04:50:57.430Z,34.80
2022-09-24T04:54:02.897Z,42.30
2022-09-24T04:57:06.520Z,36.83
2022-09-24T05:00:16.097Z,34.17
2022-09-24T05:03:21.321Z,35.57
2022-09-24T05:06:24.914Z,36.33
2022-09-24T05:09:30.219Z,36.90
2022-09-24T05:12:35.411Z,37.87
2022-09-24T05:15:42.991Z,38.80
2022-09-24T05:18:46.918Z,39.87
2022-09-24T05:21:50.875Z,39.63
2022-09-24T05:24:55.900Z,39.20
2022-09-24T05:27:58.975Z,42.00
2022-09-24T05:31:02.920Z,43.10
2022-09-24T05:34:06.816Z,44.87
2022-09-24T05:37:11.829Z,45.23
2022-09-24T05:40:35.313Z,44.50
2022-09-24T05:43:38.941Z,46.13
2022-09-24T05:46:42.571Z,45.20
2022-09-24T05:49:46.116Z,45.50
2022-09-24T05:52:49.781Z,45.47
2022-09-24T05:55:54.969Z,45.27
2022-09-24T05:59:00.942Z,45.27
2022-09-24T06:02:04.956Z,45.97
2022-09-24T06:05:10.167Z,45.17
2022-09-24T06:08:15.416Z,45.50
2022-09-24T06:11:22.474Z,44.73
2022-09-24T06:14:26.190Z,45.13
2022-09-24T06:17:31.679Z,45.47
2022-09-24T06:20:35.379Z,43.27
2022-09-24T06:23:40.689Z,44.53
2022-09-24T06:26:45.671Z,43.97
2022-09-24T06:29:49.394Z,44.60
2022-09-24T06:32:52.991Z,43.77
2022-09-24T06:35:56.508Z,42.83
2022-09-24T06:39:00.297Z,42.63
2022-09-24T06:42:05.594Z,42.33
2022-09-24T06:45:10.726Z,42.30
2022-09-24T06:48:16.224Z,39.53
2022-09-24T06:51:19.783Z,38.33
2022-09-24T06:54:23.565Z,39.33
2022-09-24T06:57:29.155Z,38.73
2022-09-24T07:00:33.059Z,37.70
2022-09-24T07:03:39.137Z,38.50
2022-09-24T07:07:00.056Z,39.47
2022-09-24T07:10:06.879Z,39.73
2022-09-24T07:13:13.301Z,37.57
2022-09-24T07:16:17.088Z,37.53
2022-09-24T07:19:20.907Z,37.83
2022-09-24T07:22:24.815Z,38.60
2022-09-24T07:25:28.398Z,37.47
2022-09-24T07:28:33.335Z,38.63
2022-09-24T07:31:37.012Z,40.50
2022-09-24T07:34:42.023Z,39.90
2022-09-24T07:37:45.657Z,39.17
2022-09-24T07:40:49.474Z,40.37
2022-09-24T07:43:55.700Z,41.27
2022-09-24T07:46:59.373Z,41.40
2022-09-24T07:50:02.935Z,42.83
2022-09-24T07:53:07.436Z,40.87
2022-09-24T07:56:11.261Z,42.00
2022-09-24T07:59:16.419Z,40.37
2022-09-24T08:02:20.695Z,40.13
2022-09-24T08:05:24.338Z,39.50
2022-09-24T08:08:28.131Z,40.63
2022-09-24T08:11:32.017Z,39.67
2022-09-24T08:14:37.143Z,40.63
2022-09-24T08:17:40.752Z,41.43
2022-09-24T08:20:44.377Z,41.63
2022-09-24T08:23:48.275Z,41.20
2022-09-24T08:26:51.875Z,41.90
2022-09-24T08:29:57.876Z,42.27
2022-09-24T08:33:01.582Z,41.23
2022-09-24T08:36:09.034Z,42.00
2022-09-24T08:39:13.775Z,42.67
2022-09-24T08:42:32.723Z,44.60
2022-09-24T08:46:05.714Z,45.03
2022-09-24T08:49:17.222Z,44.27
2022-09-24T08:52:37.299Z,46.20
2022-09-24T08:55:47.180Z,47.47
2022-09-24T08:58:57.990Z,48.37
2022-09-24T09:02:30.159Z,48.10
2022-09-24T09:05:55.375Z,50.27
2022-09-24T09:09:12.520Z,50.70
2022-09-24T09:12:23.078Z,50.83
2022-09-24T09:15:35.469Z,51.27
2022-09-24T09:18:46.352Z,51.57
2022-09-24T09:21:57.551Z,53.10
2022-09-24T09:25:24.025Z,51.37
2022-09-24T09:28:29.055Z,50.67
2022-09-24T09:31:55.325Z,52.70
2022-09-24T09:35:15.303Z,50.93
2022-09-24T09:38:26.285Z,50.40
2022-09-24T09:41:41.578Z,48.47
2022-09-24T09:44:46.347Z,46.67
2022-09-24T09:47:55.646Z,48.63
2022-09-24T09:51:06.213Z,48.33
2022-09-24T09:54:10.301Z,49.33
2022-09-24T09:57:18.214Z,48.20
2022-09-24T10:00:29.309Z,50.60
2022-09-24T10:03:40.664Z,46.53
2022-09-24T10:06:45.636Z,49.43
2022-09-24T10:10:05.337Z,46.87
2022-09-24T10:13:13.599Z,47.53
2022-09-24T10:16:17.405Z,45.70
2022-09-24T10:19:24.686Z,42.43
2022-09-24T10:22:32.082Z,44.73
2022-09-24T10:25:36.633Z,43.53
2022-09-24T10:29:05.143Z,44.60
2022-09-24T10:32:18.624Z,42.33
2022-09-24T10:35:28.764Z,45.33
2022-09-24T10:38:34.000Z,45.27
2022-09-24T10:41:37.753Z,46.10
2022-09-24T10:44:41.498Z,46.00
2022-09-24T10:47:58.720Z,43.50
2022-09-24T10:51:18.002Z,43.53
2022-09-24T10:54:44.713Z,43.00
2022-09-24T10:58:02.852Z,46.03
2022-09-24T11:01:19.405Z,42.97
2022-09-24T11:04:48.528Z,43.57
2022-09-24T11:08:13.643Z,42.57
2022-09-24T11:11:37.178Z,42.10
2022-09-24T11:15:04.359Z,42.43
2022-09-24T11:18:32.320Z,41.97
2022-09-24T11:22:00.240Z,41.40
2022-09-24T11:25:26.195Z,41.50
2022-09-24T11:29:08.225Z,39.37
2022-09-24T11:32:26.381Z,42.33
2022-09-24T11:35:57.335Z,44.77
2022-09-24T11:39:21.386Z,40.07
2022-09-24T11:42:31.845Z,41.67
2022-09-24T11:46:02.226Z,39.50
2022-09-24T11:49:41.656Z,35.87
2022-09-24T11:52:51.498Z,55.40
2022-09-24T11:56:02.643Z,43.87
2022-09-24T11:59:18.508Z,38.30
2022-09-24T12:02:31.720Z,37.40
2022-09-24T12:05:41.540Z,36.23
2022-09-24T12:08:54.860Z,35.40
2022-09-24T12:12:08.533Z,36.77
2022-09-24T12:15:25.504Z,35.63
2022-09-24T12:18:37.812Z,34.77
2022-09-24T12:21:45.920Z,36.53
2022-09-24T12:24:54.607Z,36.33
2022-09-24T12:28:00.396Z,36.60
2022-09-24T12:31:31.829Z,36.47
2022-09-24T12:34:50.882Z,36.77
2022-09-24T12:38:04.742Z,36.43
2022-09-24T12:41:32.959Z,35.97
2022-09-24T12:44:45.847Z,36.97
2022-09-24T12:47:55.465Z,36.77
2022-09-24T12:51:04.340Z,35.23
2022-09-24T12:54:21.949Z,36.80
2022-09-24T12:57:29.900Z,36.90
2022-09-24T13:00:42.043Z,36.97
2022-09-24T13:03:47.430Z,36.30
2022-09-24T13:06:53.496Z,37.47
2022-09-24T13:09:57.084Z,37.30
2022-09-24T13:13:01.964Z,34.27
2022-09-24T13:16:08.831Z,31.53
2022-09-24T13:19:31.554Z,32.00
2022-09-24T13:22:39.035Z,31.23
2022-09-24T13:25:42.764Z,29.97
2022-09-24T13:28:57.732Z,29.03
2022-09-24T13:32:04.647Z,28.00
2022-09-24T13:35:22.006Z,28.37
2022-09-24T13:38:32.694Z,27.93
2022-09-24T13:41:51.472Z,26.50
2022-09-24T13:44:58.436Z,27.53
2022-09-24T13:48:06.479Z,26.07
2022-09-24T13:51:15.324Z,26.67
2022-09-24T13:54:27.112Z,26.97
2022-09-24T13:57:31.451Z,25.63
2022-09-24T14:00:43.751Z,25.43
2022-09-24T14:03:55.892Z,24.80
2022-09-24T14:07:03.888Z,24.57
2022-09-24T14:10:15.669Z,25.73
2022-09-24T14:13:22.547Z,26.53
2022-09-24T14:16:27.644Z,27.47
2022-09-24T14:19:34.177Z,27.33
2022-09-24T14:22:44.424Z,26.50
2022-09-24T14:25:51.399Z,27.97
2022-09-24T14:28:57.112Z,29.27
2022-09-24T14:32:05.302Z,30.03
2022-09-24T14:35:19.650Z,29.73
2022-09-24T14:38:29.569Z,28.97
2022-09-24T14:41:37.503Z,31.27
2022-09-24T14:44:46.889Z,29.97
2022-09-24T14:48:02.541Z,31.03
2022-09-24T14:51:06.315Z,29.33
2022-09-24T14:54:29.131Z,29.50
2022-09-24T14:57:43.331Z,44.40
2022-09-24T15:00:55.255Z,32.13
2022-09-24T15:04:03.401Z,33.90
2022-09-24T15:07:07.188Z,65.10
2022-09-24T15:10:23.932Z,33.37
2022-09-24T15:13:34.756Z,44.17
2022-09-24T15:16:38.345Z,40.23
2022-09-24T15:19:43.979Z,54.23
2022-09-24T15:22:48.895Z,39.07
2022-09-24T15:25:52.564Z,33.23
2022-09-24T15:28:59.270Z,33.53
2022-09-24T15:32:04.051Z,32.57
2022-09-24T15:35:09.610Z,34.50
2022-09-24T15:38:17.677Z,36.70
2022-09-24T15:41:22.072Z,37.47
2022-09-24T15:44:33.652Z,40.17
2022-09-24T15:47:37.904Z,32.67
2022-09-24T15:50:43.261Z,32.13
2022-09-24T15:53:47.323Z,31.83
2022-09-24T15:56:52.504Z,30.60
2022-09-24T15:59:57.733Z,31.47
2022-09-24T16:03:03.024Z,34.83
2022-09-24T16:06:06.999Z,39.10
2022-09-24T16:09:10.712Z,40.80
2022-09-24T16:12:17.003Z,32.90
2022-09-24T16:15:22.222Z,30.20
2022-09-24T16:18:26.891Z,29.97
2022-09-24T16:21:30.991Z,28.97
2022-09-24T16:24:35.147Z,30.87
2022-09-24T16:27:39.136Z,31.17
2022-09-24T16:30:44.122Z,30.23
2022-09-24T16:33:48.706Z,31.73
2022-09-24T16:36:52.385Z,30.80
2022-09-24T16:39:56.112Z,31.43
2022-09-24T16:43:00.086Z,30.30
2022-09-24T16:46:08.705Z,31.27
2022-09-24T16:49:12.799Z,30.10
2022-09-24T16:52:16.405Z,57.20
2022-09-24T16:55:20.005Z,45.60
2022-09-24T16:58:23.534Z,36.43
2022-09-24T17:01:28.596Z,40.53
2022-09-24T17:04:32.536Z,149.33
2022-09-24T17:07:36.384Z,41.47
2022-09-24T17:10:43.011Z,47.30
2022-09-24T17:13:47.594Z,39.00
2022-09-24T17:16:52.564Z,39.97
2022-09-24T17:19:56.172Z,45.90
2022-09-24T17:22:59.756Z,31.60
2022-09-24T17:26:05.081Z,33.17
2022-09-24T17:29:08.811Z,31.47
2022-09-24T17:32:13.935Z,29.57
2022-09-24T17:35:18.795Z,30.63
2022-09-24T17:38:23.400Z,32.30
2022-09-24T17:41:28.868Z,39.93
2022-09-24T17:44:32.463Z,33.40
2022-09-24T17:47:51.306Z,31.03
2022-09-24T17:50:56.496Z,40.83
2022-09-24T17:54:02.432Z,34.23
2022-09-24T17:57:06.273Z,50.30
2022-09-24T18:00:11.959Z,32.47
2022-09-24T18:03:17.489Z,31.23
2022-09-24T18:06:21.223Z,33.63
2022-09-24T18:09:24.876Z,31.03
2022-09-24T18:12:28.450Z,30.60
2022-09-24T18:15:36.647Z,30.67
2022-09-24T18:18:43.231Z,33.13
2022-09-24T18:21:49.336Z,32.63
2022-09-24T18:24:52.949Z,33.37
2022-09-24T18:28:00.978Z,34.10
2022-09-24T18:31:05.656Z,32.90
2022-09-24T18:34:14.861Z,30.33
2022-09-24T18:37:18.542Z,30.47
2022-09-24T18:40:22.233Z,30.90
2022-09-24T18:43:25.906Z,31.00
2022-09-24T18:46:32.586Z,32.57
2022-09-24T18:49:37.602Z,33.63
2022-09-24T18:52:41.321Z,30.50
2022-09-24T18:55:45.176Z,29.13
2022-09-24T18:58:48.863Z,30.60
2022-09-24T19:01:52.975Z,31.00
2022-09-24T19:04:58.078Z,34.53
2022-09-24T19:08:01.891Z,36.20
2022-09-24T19:11:09.336Z,33.03
2022-09-24T19:14:18.057Z,32.07
2022-09-24T19:17:22.291Z,33.13
2022-09-24T19:20:27.372Z,31.97
2022-09-24T19:23:31.049Z,31.33
2022-09-24T19:26:37.423Z,29.40
2022-09-24T19:29:43.173Z,30.87
2022-09-24T19:32:46.940Z,31.33
2022-09-24T19:35:57.907Z,32.70
2022-09-24T19:39:02.846Z,29.60
2022-09-24T19:42:06.728Z,30.60
2022-09-24T19:45:11.550Z,32.27
2022-09-24T19:48:15.149Z,30.37
2022-09-24T19:51:22.546Z,31.43
2022-09-24T19:54:26.198Z,32.07
2022-09-24T19:57:29.764Z,33.07
2022-09-24T20:00:33.723Z,22.93
2022-09-24T20:03:39.127Z,18.20
2022-09-24T20:06:44.135Z,16.17
2022-09-24T20:09:47.785Z,16.27
2022-09-24T20:12:51.978Z,13.70
2022-09-24T20:16:00.965Z,14.57
2022-09-24T20:19:05.389Z,13.93
2022-09-24T20:22:12.831Z,13.77
2022-09-24T20:25:40.256Z,13.87
2022-09-24T20:28:43.011Z,12.93
2022-09-24T20:31:52.373Z,13.73
2022-09-24T20:34:56.056Z,12.37
2022-09-24T20:38:02.354Z,12.63
2022-09-24T20:41:10.748Z,12.00
2022-09-24T20:44:14.936Z,12.57
2022-09-24T20:47:18.558Z,12.27
2022-09-24T20:50:22.579Z,12.67
2022-09-24T20:53:29.668Z,14.77
2022-09-24T20:56:33.301Z,14.80
2022-09-24T20:59:36.934Z,16.83
2022-09-24T21:02:42.022Z,17.77
2022-09-24T21:05:45.839Z,17.97
2022-09-24T21:08:52.413Z,19.40
2022-09-24T21:11:56.029Z,19.07
2022-09-24T21:15:00.093Z,20.73
2022-09-24T21:18:22.145Z,20.50
2022-09-24T21:21:29.868Z,20.63
2022-09-24T21:24:34.925Z,19.00
2022-09-24T21:27:38.866Z,18.87
2022-09-24T21:30:42.454Z,21.10
2022-09-24T21:33:48.546Z,20.20
2022-09-24T21:36:53.198Z,21.63
2022-09-24T21:39:58.133Z,20.07
2022-09-24T21:43:02.224Z,20.60
2022-09-24T21:46:07.623Z,20.70
2022-09-24T21:49:12.501Z,20.67
2022-09-24T21:52:16.221Z,20.03
2022-09-24T21:55:21.161Z,23.07
2022-09-24T21:58:24.943Z,24.30
2022-09-24T22:01:31.261Z,27.10
2022-09-24T22:04:34.913Z,26.93
2022-09-24T22:07:38.936Z,27.33
2022-09-24T22:10:45.203Z,28.70
2022-09-24T22:13:48.788Z,29.53
2022-09-24T22:16:52.796Z,31.50
2022-09-24T22:19:56.413Z,32.37
2022-09-24T22:23:00.107Z,32.20
2022-09-24T22:26:06.623Z,32.27
2022-09-24T22:29:10.369Z,30.90
2022-09-24T22:32:13.955Z,30.40
2022-09-24T22:35:31.665Z,29.40
2022-09-24T22:38:35.990Z,29.13
2022-09-24T22:41:42.945Z,26.57
2022-09-24T22:44:46.532Z,26.00
2022-09-24T22:47:50.199Z,25.87
2022-09-24T22:50:53.852Z,24.50
2022-09-24T22:53:58.916Z,24.03
2022-09-24T22:57:03.890Z,22.93
2022-09-24T23:00:09.347Z,22.40
2022-09-24T23:03:12.881Z,21.10
2022-09-24T23:06:16.679Z,21.60
2022-09-24T23:09:21.071Z,20.47
2022-09-24T23:12:26.038Z,19.03
2022-09-24T23:15:42.923Z,18.17
2022-09-24T23:18:49.463Z,18.63
2022-09-24T23:21:53.029Z,17.27
2022-09-24T23:24:56.610Z,16.73
2022-09-24T23:28:01.684Z,16.23
2022-09-24T23:31:06.624Z,16.47
2022-09-24T23:34:13.004Z,16.83
2022-09-24T23:37:16.739Z,17.80
2022-09-24T23:40:20.389Z,16.73
2022-09-24T23:43:25.747Z,16.47
2022-09-24T23:46:30.731Z,17.03
2022-09-24T23:49:34.462Z,16.83
2022-09-24T23:52:38.053Z,16.87
2022-09-24T23:55:42.640Z,16.97
2022-09-24T23:58:48.344Z,16.70
